Time;durP1;ratioP1;P1;durP2;ratioP2;P2;SDS_P1;SDS_P2;PMS_P1;PMS_P2;Temp;Humidity;BMP_temperature;BMP_pressure;BME280_temperature;BME280_humidity;BME280_pressure;Samples;Min_cycle;Max_cycle;Signal;HPM_P1;HPM_P2
2022/03/26 00:00:21;;;;;;;24.95;15.07;;;11.90;85.50;;;;;;7387299;19;20138;-77
2022/03/26 00:02:48;;;;;;;27.40;14.63;;;11.80;85.80;;;;;;7385414;19;20134;-78
2022/03/26 00:05:18;;;;;;;32.33;16.07;;;11.80;85.40;;;;;;7387429;19;20151;-77
2022/03/26 00:07:44;;;;;;;29.27;15.47;;;11.70;84.40;;;;;;7390744;19;20574;-76
2022/03/26 00:10:10;;;;;;;30.27;15.30;;;11.50;84.50;;;;;;7392102;19;20165;-76
2022/03/26 00:12:37;;;;;;;28.00;16.23;;;11.60;84.70;;;;;;7385719;19;20930;-77
2022/03/26 00:15:04;;;;;;;28.63;15.97;;;11.80;84.30;;;;;;7385080;19;20131;-76
2022/03/26 00:17:30;;;;;;;26.37;17.03;;;11.90;84.30;;;;;;7385569;19;20139;-77
2022/03/26 00:19:56;;;;;;;24.67;15.17;;;12.00;83.80;;;;;;7387385;19;20139;-76
2022/03/26 00:22:22;;;;;;;25.85;15.63;;;11.90;83.40;;;;;;7385623;19;20198;-76
2022/03/26 00:24:48;;;;;;;24.70;15.27;;;11.90;83.70;;;;;;7385145;19;20130;-76
2022/03/26 00:27:15;;;;;;;31.37;15.50;;;11.70;84.30;;;;;;7385896;19;20432;-78
2022/03/26 00:29:40;;;;;;;25.47;14.93;;;12.00;85.00;;;;;;7386449;19;20599;-76
2022/03/26 00:32:07;;;;;;;25.10;14.67;;;12.00;85.30;;;;;;7385221;19;20137;-76
2022/03/26 00:34:33;;;;;;;25.47;15.53;;;12.00;85.50;;;;;;7383307;19;20138;-76
2022/03/26 00:36:59;;;;;;;25.53;15.27;;;12.00;85.30;;;;;;7385646;19;20236;-77
2022/03/26 00:39:25;;;;;;;24.50;15.35;;;12.00;85.20;;;;;;7383429;19;20925;-77
2022/03/26 00:41:51;;;;;;;27.40;14.87;;;12.00;85.50;;;;;;7387033;19;20147;-76
2022/03/26 00:44:17;;;;;;;27.70;16.00;;;11.80;85.90;;;;;;7385396;19;20123;-76
2022/03/26 00:46:46;;;;;;;27.83;14.80;;;11.90;86.00;;;;;;7383978;19;20485;-76
2022/03/26 00:49:14;;;;;;;31.67;14.77;;;11.90;85.80;;;;;;7390958;19;20144;-78
2022/03/26 00:51:40;;;;;;;26.77;15.37;;;11.80;85.70;;;;;;7385713;19;20482;-77
2022/03/26 00:54:08;;;;;;;25.47;15.17;;;11.80;85.70;;;;;;7385649;19;20646;-76
2022/03/26 00:56:35;;;;;;;24.23;14.63;;;11.60;85.90;;;;;;7384007;19;20156;-77
2022/03/26 00:59:01;;;;;;;26.03;14.87;;;11.70;86.30;;;;;;7387929;19;20131;-77
2022/03/26 01:01:26;;;;;;;23.43;14.03;;;11.60;86.80;;;;;;7385188;19;20137;-76
2022/03/26 01:03:52;;;;;;;28.17;15.00;;;11.60;86.60;;;;;;7384328;19;20134;-76
2022/03/26 01:06:18;;;;;;;28.90;14.83;;;11.30;87.50;;;;;;7383094;19;20126;-77
2022/03/26 01:08:45;;;;;;;25.40;14.87;;;11.20;87.70;;;;;;7390210;19;20627;-78
2022/03/26 01:11:11;;;;;;;25.13;14.40;;;11.40;87.70;;;;;;7391832;19;20130;-77
2022/03/26 01:13:38;;;;;;;25.07;13.87;;;11.50;87.50;;;;;;7384765;19;20188;-76
2022/03/26 01:16:06;;;;;;;24.97;14.43;;;11.60;87.10;;;;;;7384620;19;20130;-77
2022/03/26 01:18:33;;;;;;;23.93;14.20;;;11.50;87.40;;;;;;7385252;19;20127;-77
2022/03/26 01:20:59;;;;;;;24.60;14.63;;;11.40;87.50;;;;;;7383100;19;20228;-77
2022/03/26 01:23:25;;;;;;;26.13;15.53;;;11.40;87.60;;;;;;7383552;19;20561;-77
2022/03/26 01:25:52;;;;;;;28.03;15.03;;;11.20;87.30;;;;;;7385676;19;20153;-77
2022/03/26 01:28:18;;;;;;;25.57;14.87;;;11.20;87.60;;;;;;7390174;19;20208;-76
2022/03/26 01:30:44;;;;;;;23.23;14.50;;;11.00;87.50;;;;;;7383319;19;20157;-76
2022/03/26 01:33:09;;;;;;;21.73;13.93;;;11.00;87.50;;;;;;7382501;19;20147;-76
2022/03/26 01:35:35;;;;;;;27.20;15.40;;;10.90;87.90;;;;;;7383351;19;20159;-76
2022/03/26 01:38:04;;;;;;;20.57;12.63;;;11.00;88.20;;;;;;7383908;19;20139;-77
2022/03/26 01:40:31;;;;;;;28.23;15.00;;;11.10;87.80;;;;;;7382869;19;20138;-78
2022/03/26 01:42:56;;;;;;;24.33;14.77;;;11.20;87.70;;;;;;7386373;19;20150;-77
2022/03/26 01:45:22;;;;;;;30.43;13.60;;;11.20;87.50;;;;;;7384253;19;20126;-77
2022/03/26 01:47:48;;;;;;;28.83;14.87;;;11.20;87.90;;;;;;7388451;19;20133;-75
2022/03/26 01:50:14;;;;;;;24.17;14.47;;;11.30;88.00;;;;;;7386051;19;20555;-77
2022/03/26 01:52:40;;;;;;;25.33;13.87;;;11.30;87.70;;;;;;7383926;19;20131;-77
2022/03/26 01:55:06;;;;;;;24.33;15.43;;;10.90;88.30;;;;;;7382343;19;20202;-76
2022/03/26 01:57:32;;;;;;;25.60;14.53;;;10.90;88.60;;;;;;7383872;19;20131;-78
2022/03/26 01:59:58;;;;;;;24.97;13.83;;;11.00;88.50;;;;;;7389144;19;20123;-76
2022/03/26 02:02:25;;;;;;;24.10;13.90;;;11.10;88.50;;;;;;7386822;19;20134;-77
2022/03/26 02:04:51;;;;;;;24.43;13.60;;;11.20;88.30;;;;;;7387650;19;20524;-75
2022/03/26 02:07:18;;;;;;;27.20;15.27;;;10.80;88.80;;;;;;7393402;19;20130;-77
2022/03/26 02:09:50;;;;;;;33.90;14.33;;;10.70;89.70;;;;;;7401283;19;20130;-77
2022/03/26 02:12:25;;;;;;;28.30;14.67;;;10.80;89.40;;;;;;7392472;19;20130;-77
2022/03/26 02:14:52;;;;;;;25.00;13.87;;;10.90;88.90;;;;;;7396217;19;20137;-77
2022/03/26 02:17:18;;;;;;;23.33;14.93;;;10.90;88.80;;;;;;7394219;19;20127;-76
2022/03/26 02:20:14;;;;;;;27.50;14.70;;;10.90;88.90;;;;;;7389940;19;20141;-76
2022/03/26 02:22:40;;;;;;;24.37;13.33;;;11.00;89.20;;;;;;7397089;19;20131;-77
2022/03/26 02:25:07;;;;;;;22.37;13.30;;;11.10;89.50;;;;;;7390455;19;20239;-75
2022/03/26 02:27:33;;;;;;;24.50;14.07;;;11.10;89.40;;;;;;7391314;19;20130;-77
2022/03/26 02:29:59;;;;;;;24.93;15.03;;;11.00;89.60;;;;;;7398561;19;20126;-76
2022/03/26 02:32:27;;;;;;;24.27;14.67;;;10.80;89.50;;;;;;7395110;19;20139;-77
2022/03/26 02:34:53;;;;;;;24.17;14.33;;;10.90;89.40;;;;;;7389281;19;20154;-76
2022/03/26 02:37:19;;;;;;;24.07;14.07;;;10.90;89.40;;;;;;7389361;19;20147;-77
2022/03/26 02:39:45;;;;;;;25.83;14.77;;;10.90;89.40;;;;;;7389504;19;20131;-76
2022/03/26 02:42:12;;;;;;;30.70;13.87;;;10.90;89.40;;;;;;7390693;19;20134;-77
2022/03/26 02:44:38;;;;;;;26.73;13.70;;;10.80;89.30;;;;;;7391521;19;20141;-77
2022/03/26 02:47:05;;;;;;;23.03;13.73;;;10.70;89.80;;;;;;7392527;19;20145;-76
2022/03/26 02:49:30;;;;;;;23.50;13.57;;;10.60;89.60;;;;;;7392411;19;20131;-77
2022/03/26 02:51:56;;;;;;;26.43;14.60;;;10.60;90.00;;;;;;7397367;19;20163;-76
2022/03/26 02:54:22;;;;;;;26.13;14.17;;;10.60;89.50;;;;;;7391207;19;20142;-78
2022/03/26 02:56:49;;;;;;;23.40;14.83;;;10.60;89.70;;;;;;7390161;19;20130;-77
2022/03/26 02:59:15;;;;;;;24.90;12.87;;;10.60;90.00;;;;;;7392076;19;20127;-77
2022/03/26 03:01:41;;;;;;;24.40;13.70;;;10.30;90.10;;;;;;7389709;19;20141;-78
2022/03/26 03:04:08;;;;;;;28.70;14.60;;;10.10;90.40;;;;;;7393928;19;20119;-76
2022/03/26 03:06:34;;;;;;;24.20;14.03;;;10.20;90.40;;;;;;7390978;19;20142;-76
2022/03/26 03:09:04;;;;;;;23.23;13.47;;;10.30;90.40;;;;;;7388919;19;20131;-76
2022/03/26 03:11:30;;;;;;;22.10;13.30;;;10.30;90.40;;;;;;7393746;19;20131;-76
2022/03/26 03:13:57;;;;;;;26.57;14.87;;;10.50;90.30;;;;;;7398270;19;20131;-76
2022/03/26 03:16:23;;;;;;;26.57;14.63;;;10.60;90.30;;;;;;7388464;19;20490;-77
2022/03/26 03:18:48;;;;;;;24.30;14.73;;;10.60;90.20;;;;;;7385580;19;20134;-77
2022/03/26 03:21:14;;;;;;;23.43;13.07;;;10.60;90.40;;;;;;7392942;19;20126;-77
2022/03/26 03:23:40;;;;;;;27.63;13.87;;;10.70;90.50;;;;;;7390106;19;20198;-76
2022/03/26 03:26:05;;;;;;;22.50;12.90;;;10.60;90.60;;;;;;7388014;19;21061;-75
2022/03/26 03:28:31;;;;;;;25.67;14.30;;;10.60;90.60;;;;;;7388983;19;20142;-76
2022/03/26 03:30:57;;;;;;;22.57;13.60;;;10.50;90.70;;;;;;7387796;19;20127;-75
2022/03/26 03:33:23;;;;;;;21.10;13.27;;;10.40;90.80;;;;;;7391648;19;20154;-76
2022/03/26 03:35:49;;;;;;;23.97;13.77;;;10.30;90.90;;;;;;7390876;19;20831;-75
2022/03/26 03:38:15;;;;;;;24.60;15.17;;;10.20;90.90;;;;;;7389668;19;20156;-76
2022/03/26 03:40:41;;;;;;;24.53;13.03;;;10.00;91.10;;;;;;7387760;19;20134;-76
2022/03/26 03:43:07;;;;;;;25.10;13.17;;;9.90;91.30;;;;;;7389674;19;20198;-75
2022/03/26 03:45:34;;;;;;;27.17;13.83;;;10.10;91.10;;;;;;7387275;19;20145;-76
2022/03/26 03:48:00;;;;;;;25.63;13.93;;;9.80;91.20;;;;;;7388776;19;20118;-75
2022/03/26 03:50:26;;;;;;;22.93;13.43;;;9.60;91.50;;;;;;7388379;19;20232;-76
2022/03/26 03:52:53;;;;;;;22.23;13.10;;;9.90;91.50;;;;;;7406637;19;20123;-76
2022/03/26 03:55:19;;;;;;;26.17;14.00;;;10.10;91.30;;;;;;7389113;19;20138;-76
2022/03/26 03:57:45;;;;;;;24.50;13.80;;;10.20;91.20;;;;;;7387787;19;20134;-75
2022/03/26 04:00:13;;;;;;;25.23;14.20;;;10.20;91.20;;;;;;7388478;19;20130;-78
2022/03/26 04:02:40;;;;;;;23.80;13.63;;;10.20;91.20;;;;;;7386727;19;20323;-75
2022/03/26 04:05:09;;;;;;;23.93;14.07;;;10.20;91.10;;;;;;7388682;19;20160;-76
2022/03/26 04:07:36;;;;;;;21.97;12.97;;;10.10;91.10;;;;;;7387970;19;20156;-77
2022/03/26 04:10:07;;;;;;;23.47;13.00;;;10.10;91.10;;;;;;7392855;19;20603;-76
2022/03/26 04:12:36;;;;;;;23.60;13.27;;;10.00;91.10;;;;;;7391427;19;20127;-76
2022/03/26 04:15:04;;;;;;;23.63;14.00;;;10.00;91.40;;;;;;7388776;19;20127;-76
2022/03/26 04:17:30;;;;;;;23.70;12.87;;;10.10;91.40;;;;;;7385792;19;20625;-75
2022/03/26 04:19:56;;;;;;;22.43;13.37;;;9.90;91.50;;;;;;7385162;19;20131;-76
2022/03/26 04:22:27;;;;;;;23.53;14.03;;;10.00;91.50;;;;;;7393186;19;20152;-77
2022/03/26 04:24:53;;;;;;;21.30;13.23;;;9.80;91.60;;;;;;7386481;19;20186;-77
2022/03/26 04:27:18;;;;;;;25.60;14.07;;;9.80;91.70;;;;;;7387378;19;20130;-77
2022/03/26 04:29:44;;;;;;;20.77;12.93;;;9.90;91.70;;;;;;7385231;19;20139;-75
2022/03/26 04:32:12;;;;;;;25.40;14.33;;;10.00;91.70;;;;;;7392222;19;20449;-76
2022/03/26 04:34:38;;;;;;;21.00;12.77;;;9.90;91.70;;;;;;7384406;19;20158;-76
2022/03/26 04:37:05;;;;;;;24.27;13.40;;;9.90;91.70;;;;;;7386863;19;20126;-76
2022/03/26 04:39:32;;;;;;;25.73;13.63;;;9.90;91.70;;;;;;7383984;19;20166;-76
2022/03/26 04:42:01;;;;;;;24.53;13.83;;;9.80;91.70;;;;;;7386697;19;20152;-76
2022/03/26 04:44:27;;;;;;;27.33;14.30;;;9.70;92.00;;;;;;7386132;19;20606;-76
2022/03/26 04:46:53;;;;;;;25.13;14.00;;;9.80;92.00;;;;;;7385155;19;20240;-76
2022/03/26 04:49:19;;;;;;;24.47;13.57;;;9.80;92.00;;;;;;7387271;19;20133;-76
2022/03/26 04:51:45;;;;;;;22.73;13.07;;;9.80;92.00;;;;;;7386577;19;20446;-77
2022/03/26 04:54:11;;;;;;;25.90;14.07;;;9.70;92.00;;;;;;7392172;19;20135;-76
2022/03/26 04:56:37;;;;;;;24.43;13.47;;;9.70;92.00;;;;;;7386897;19;20123;-75
2022/03/26 04:59:02;;;;;;;19.57;12.97;;;9.60;92.40;;;;;;7384207;19;20574;-75
2022/03/26 05:01:28;;;;;;;22.90;12.87;;;9.30;92.60;;;;;;7387624;19;20257;-76
2022/03/26 05:03:54;;;;;;;20.93;13.13;;;9.50;92.90;;;;;;7385295;19;20126;-75
2022/03/26 05:06:19;;;;;;;24.93;13.47;;;9.40;92.90;;;;;;7386159;19;20638;-75
2022/03/26 05:08:45;;;;;;;24.53;13.20;;;9.30;92.80;;;;;;7386816;19;20490;-76
2022/03/26 05:11:11;;;;;;;24.33;13.33;;;9.50;92.80;;;;;;7388025;19;20133;-76
2022/03/26 05:13:37;;;;;;;25.30;13.17;;;9.30;92.70;;;;;;7386926;19;20233;-78
2022/03/26 05:16:03;;;;;;;21.10;12.70;;;9.10;93.10;;;;;;7388481;19;20169;-76
2022/03/26 05:18:29;;;;;;;22.13;13.07;;;9.00;93.40;;;;;;7384500;19;20137;-76
2022/03/26 05:20:56;;;;;;;25.17;13.93;;;9.20;93.40;;;;;;7388440;19;20146;-75
2022/03/26 05:23:24;;;;;;;25.50;13.33;;;9.30;93.20;;;;;;7384864;19;20143;-76
2022/03/26 05:25:49;;;;;;;28.97;13.33;;;9.50;93.20;;;;;;7385598;19;20138;-76
2022/03/26 05:28:15;;;;;;;23.63;13.50;;;9.50;93.00;;;;;;7385506;19;20143;-76
2022/03/26 05:30:41;;;;;;;22.70;13.70;;;9.60;92.90;;;;;;7384324;19;20145;-77
2022/03/26 05:33:07;;;;;;;25.73;13.40;;;9.50;92.90;;;;;;7385610;19;20134;-76
2022/03/26 05:35:33;;;;;;;22.43;12.23;;;9.50;92.90;;;;;;7384837;19;20138;-75
2022/03/26 05:38:00;;;;;;;26.27;12.90;;;9.50;92.90;;;;;;7393487;19;20486;-75
2022/03/26 05:40:26;;;;;;;23.40;12.87;;;9.40;93.00;;;;;;7386274;19;20160;-77
2022/03/26 05:42:53;;;;;;;23.83;12.80;;;9.20;93.10;;;;;;7393195;19;20131;-76
2022/03/26 05:45:19;;;;;;;26.63;12.63;;;9.20;93.70;;;;;;7393655;19;20206;-77
2022/03/26 05:47:48;;;;;;;23.73;13.63;;;9.20;93.80;;;;;;7390981;19;20153;-76
2022/03/26 05:50:14;;;;;;;23.93;13.30;;;9.50;93.40;;;;;;7393406;19;20131;-77
2022/03/26 05:52:40;;;;;;;25.07;13.17;;;9.50;93.10;;;;;;7391774;19;20127;-75
2022/03/26 05:55:07;;;;;;;25.77;13.77;;;9.70;92.80;;;;;;7393498;19;20868;-77
2022/03/26 05:57:33;;;;;;;24.07;13.30;;;9.50;92.80;;;;;;7392512;19;20222;-76
2022/03/26 05:59:59;;;;;;;24.23;12.67;;;9.40;93.20;;;;;;7394775;19;20118;-76
2022/03/26 06:02:24;;;;;;;23.63;12.93;;;9.40;93.40;;;;;;7391564;19;20160;-75
2022/03/26 06:04:50;;;;;;;22.83;13.70;;;9.40;93.90;;;;;;7391110;19;20212;-76
2022/03/26 06:07:16;;;;;;;22.97;14.00;;;9.40;93.70;;;;;;7389903;19;20135;-75
2022/03/26 06:09:42;;;;;;;23.23;13.43;;;9.40;93.90;;;;;;7391709;19;20182;-75
2022/03/26 06:12:08;;;;;;;21.97;12.93;;;9.50;93.70;;;;;;7390401;19;20123;-75
2022/03/26 06:14:34;;;;;;;22.33;12.57;;;9.60;93.60;;;;;;7394175;19;20130;-74
2022/03/26 06:17:00;;;;;;;23.00;13.57;;;9.70;93.40;;;;;;7391012;19;20508;-74
2022/03/26 06:19:26;;;;;;;26.20;13.90;;;9.60;93.50;;;;;;7391683;19;20163;-75
2022/03/26 06:21:52;;;;;;;22.30;12.93;;;9.40;93.70;;;;;;7396138;19;20210;-76
2022/03/26 06:24:19;;;;;;;22.63;13.70;;;9.40;94.00;;;;;;7391000;19;20138;-75
2022/03/26 06:26:47;;;;;;;26.60;13.50;;;9.50;94.10;;;;;;7392365;19;20605;-75
2022/03/26 06:29:14;;;;;;;23.37;14.00;;;9.70;93.80;;;;;;7387729;19;20141;-75
2022/03/26 06:31:40;;;;;;;23.77;14.57;;;9.80;93.70;;;;;;7390647;19;20126;-74
2022/03/26 06:34:06;;;;;;;25.77;14.50;;;9.70;93.80;;;;;;7389485;19;20157;-76
2022/03/26 06:36:34;;;;;;;26.63;14.37;;;9.70;94.00;;;;;;7392057;19;20150;-76
2022/03/26 06:39:06;;;;;;;24.47;15.33;;;9.60;94.20;;;;;;7390312;19;20143;-75
2022/03/26 06:41:32;;;;;;;24.97;13.97;;;9.70;94.30;;;;;;7392022;19;20134;-75
2022/03/26 06:43:58;;;;;;;26.43;14.70;;;9.60;94.50;;;;;;7398559;19;20550;-75
2022/03/26 06:46:23;;;;;;;25.57;14.40;;;9.70;94.40;;;;;;7389951;19;20138;-75
2022/03/26 06:48:49;;;;;;;27.20;14.43;;;9.80;94.40;;;;;;7391212;19;20126;-76
2022/03/26 06:51:15;;;;;;;24.57;14.30;;;9.90;93.80;;;;;;7389977;19;20134;-75
2022/03/26 06:53:42;;;;;;;25.00;14.20;;;9.90;93.00;;;;;;7391629;19;20142;-76
2022/03/26 06:56:08;;;;;;;24.93;15.10;;;9.90;92.70;;;;;;7390764;19;20138;-74
2022/03/26 06:58:35;;;;;;;28.67;14.80;;;9.70;92.80;;;;;;7390142;19;20131;-76
2022/03/26 07:01:01;;;;;;;23.80;13.07;;;9.70;93.20;;;;;;7389273;19;20139;-75
2022/03/26 07:03:27;;;;;;;25.13;14.03;;;9.80;93.00;;;;;;7390490;19;20135;-75
2022/03/26 07:05:53;;;;;;;27.87;15.00;;;9.80;92.90;;;;;;7396153;19;20416;-75
2022/03/26 07:08:18;;;;;;;26.33;14.53;;;9.90;93.00;;;;;;7389779;19;20138;-75
2022/03/26 07:10:47;;;;;;;23.63;14.30;;;9.90;92.80;;;;;;7393351;19;20166;-76
2022/03/26 07:13:14;;;;;;;24.63;13.37;;;9.80;92.80;;;;;;7390362;19;20138;-75
2022/03/26 07:15:40;;;;;;;26.47;14.57;;;10.00;92.50;;;;;;7390010;19;20138;-74
2022/03/26 07:18:06;;;;;;;24.70;14.03;;;10.00;92.20;;;;;;7387635;19;20198;-74
2022/03/26 07:20:31;;;;;;;24.57;13.83;;;10.20;91.80;;;;;;7391048;19;20123;-75
2022/03/26 07:22:57;;;;;;;24.60;14.03;;;10.30;91.60;;;;;;7388025;19;20460;-76
2022/03/26 07:25:23;;;;;;;27.07;14.53;;;10.30;91.50;;;;;;7389770;19;20590;-74
2022/03/26 07:27:49;;;;;;;22.57;13.77;;;10.20;91.60;;;;;;7390278;19;20167;-76
2022/03/26 07:30:15;;;;;;;25.83;13.70;;;9.90;92.10;;;;;;7416601;19;20138;-75
2022/03/26 07:32:40;;;;;;;21.90;12.57;;;10.20;91.80;;;;;;7387893;19;20174;-76
2022/03/26 07:35:08;;;;;;;24.70;13.87;;;10.30;91.60;;;;;;7386130;19;20152;-79
2022/03/26 07:37:34;;;;;;;27.07;13.47;;;10.50;91.20;;;;;;7386618;19;20209;-75
2022/03/26 07:40:00;;;;;;;22.53;13.40;;;10.50;91.20;;;;;;7386400;19;20190;-74
2022/03/26 07:42:26;;;;;;;25.07;14.77;;;10.60;91.20;;;;;;7390136;19;20127;-76
2022/03/26 07:44:53;;;;;;;25.07;14.53;;;10.60;91.20;;;;;;7389529;19;20135;-75
2022/03/26 07:47:18;;;;;;;26.40;13.73;;;10.70;91.10;;;;;;7387892;19;20135;-75
2022/03/26 07:49:45;;;;;;;24.23;14.53;;;10.60;91.20;;;;;;7396747;19;20139;-76
2022/03/26 07:52:11;;;;;;;26.83;13.60;;;10.20;91.90;;;;;;7389552;19;20127;-75
2022/03/26 07:54:37;;;;;;;24.27;14.47;;;10.30;92.10;;;;;;7388204;19;20129;-76
2022/03/26 07:57:04;;;;;;;24.67;14.20;;;10.50;91.70;;;;;;7389812;19;20130;-74
2022/03/26 07:59:30;;;;;;;31.73;15.40;;;10.60;91.60;;;;;;7388338;19;20134;-75
2022/03/26 08:01:56;;;;;;;26.97;14.50;;;10.80;91.60;;;;;;7387206;19;20131;-75
2022/03/26 08:04:22;;;;;;;24.83;14.37;;;10.80;91.40;;;;;;7385797;19;20130;-76
2022/03/26 08:06:47;;;;;;;25.57;14.07;;;10.90;91.30;;;;;;7388360;19;20515;-75
2022/03/26 08:09:13;;;;;;;24.00;13.47;;;11.00;91.10;;;;;;7387555;19;20130;-75
2022/03/26 08:11:39;;;;;;;28.70;14.60;;;11.00;91.20;;;;;;7396528;19;20134;-76
2022/03/26 08:14:04;;;;;;;22.30;13.77;;;11.10;91.20;;;;;;7386241;19;20486;-75
2022/03/26 08:16:30;;;;;;;25.63;14.23;;;11.30;90.70;;;;;;7385725;19;20925;-76
2022/03/26 08:18:56;;;;;;;27.60;14.37;;;11.50;90.40;;;;;;7384348;19;20744;-75
2022/03/26 08:21:22;;;;;;;26.23;13.73;;;11.50;90.60;;;;;;7391071;19;20142;-76
2022/03/26 08:23:47;;;;;;;25.70;14.70;;;11.60;90.00;;;;;;7386168;19;20123;-75
2022/03/26 08:26:29;;;;;;;24.30;13.97;;;11.60;90.10;;;;;;7385371;19;20142;-76
2022/03/26 08:28:57;;;;;;;24.37;13.67;;;11.70;89.90;;;;;;7384808;19;20499;-77
2022/03/26 08:31:26;;;;;;;24.93;13.97;;;11.90;89.70;;;;;;7391464;19;20141;-76
2022/03/26 08:33:53;;;;;;;23.50;13.57;;;12.00;90.00;;;;;;7389035;19;20860;-75
2022/03/26 08:36:19;;;;;;;22.73;13.77;;;12.30;88.80;;;;;;7387640;19;20145;-75
2022/03/26 08:38:46;;;;;;;27.57;13.80;;;12.30;88.30;;;;;;7384820;19;20135;-75
2022/03/26 08:41:15;;;;;;;24.90;13.63;;;12.40;87.60;;;;;;7385778;19;20134;-76
2022/03/26 08:43:40;;;;;;;23.10;12.90;;;12.60;87.40;;;;;;7389002;19;20146;-77
2022/03/26 08:46:06;;;;;;;27.10;13.13;;;13.00;86.20;;;;;;7384326;19;20130;-76
2022/03/26 08:48:32;;;;;;;27.77;13.27;;;13.20;85.30;;;;;;7384648;19;20232;-76
2022/03/26 08:50:59;;;;;;;23.10;12.67;;;13.30;84.90;;;;;;7385947;19;20139;-76
2022/03/26 08:53:25;;;;;;;24.53;12.87;;;13.20;84.80;;;;;;7386613;19;20159;-75
2022/03/26 08:55:51;;;;;;;22.87;13.33;;;13.20;84.60;;;;;;7386541;19;20367;-76
2022/03/26 08:58:17;;;;;;;24.10;13.73;;;13.00;84.80;;;;;;7388695;19;20141;-75
2022/03/26 09:00:49;;;;;;;27.03;13.07;;;13.10;84.50;;;;;;7385805;19;20162;-75
2022/03/26 09:03:17;;;;;;;24.80;13.60;;;13.10;84.40;;;;;;7387230;19;20727;-74
2022/03/26 09:05:44;;;;;;;26.63;13.13;;;13.20;83.80;;;;;;7384221;19;20135;-76
2022/03/26 09:08:10;;;;;;;21.97;13.10;;;13.20;83.80;;;;;;7384455;19;20131;-76
2022/03/26 09:10:36;;;;;;;40.87;14.73;;;13.30;83.80;;;;;;7387238;19;20235;-74
2022/03/26 09:13:02;;;;;;;22.57;12.50;;;13.30;83.60;;;;;;7386344;19;20242;-76
2022/03/26 09:15:28;;;;;;;30.20;14.13;;;13.20;83.90;;;;;;7386170;19;20130;-76
2022/03/26 09:17:54;;;;;;;23.13;13.47;;;13.40;84.00;;;;;;7395070;19;20158;-77
2022/03/26 09:20:19;;;;;;;21.87;12.80;;;13.80;82.80;;;;;;7402243;19;20138;-75
2022/03/26 09:22:45;;;;;;;26.87;14.27;;;13.90;82.50;;;;;;7392990;19;20218;-75
2022/03/26 09:25:12;;;;;;;23.73;13.90;;;14.00;82.30;;;;;;7393575;19;20145;-75
2022/03/26 09:27:38;;;;;;;25.17;13.97;;;13.90;82.60;;;;;;7391709;19;20512;-77
2022/03/26 09:30:06;;;;;;;25.47;13.67;;;13.90;82.70;;;;;;7393879;19;20127;-76
2022/03/26 09:32:32;;;;;;;24.33;13.37;;;13.80;83.10;;;;;;7393726;19;20507;-75
2022/03/26 09:34:57;;;;;;;23.87;14.70;;;13.70;83.30;;;;;;7389488;19;20147;-75
2022/03/26 09:37:23;;;;;;;23.80;14.53;;;13.70;83.60;;;;;;7391240;19;20190;-76
2022/03/26 09:39:52;;;;;;;25.23;14.50;;;13.70;83.30;;;;;;7400509;19;20162;-76
2022/03/26 09:42:17;;;;;;;23.07;13.80;;;13.80;83.40;;;;;;7397806;19;20228;-76
2022/03/26 09:44:44;;;;;;;30.13;14.53;;;13.80;83.60;;;;;;7397918;19;20131;-76
2022/03/26 09:47:10;;;;;;;27.20;14.93;;;13.90;83.60;;;;;;7391985;19;20207;-78
2022/03/26 09:49:40;;;;;;;26.77;14.60;;;14.10;83.50;;;;;;7391387;19;20143;-78
2022/03/26 09:52:06;;;;;;;25.43;13.57;;;14.20;83.30;;;;;;7391545;19;20130;-77
2022/03/26 09:54:33;;;;;;;30.85;15.02;;;14.30;83.20;;;;;;7393437;19;20145;-77
2022/03/26 09:57:01;;;;;;;28.50;15.90;;;14.40;83.40;;;;;;7390836;19;20476;-78
2022/03/26 09:59:27;;;;;;;28.95;15.68;;;14.60;82.70;;;;;;7389977;19;20137;-77
2022/03/26 10:01:52;;;;;;;26.50;15.03;;;14.60;82.50;;;;;;7391673;19;20126;-76
2022/03/26 10:04:21;;;;;;;25.92;14.48;;;14.70;82.70;;;;;;7394198;19;20130;-76
2022/03/26 10:06:52;;;;;;;27.10;14.98;;;14.70;83.00;;;;;;7400566;19;20127;-78
2022/03/26 10:09:36;;;;;;;24.33;14.48;;;15.00;83.00;;;;;;7394299;19;20139;-76
2022/03/26 10:12:04;;;;;;;24.40;14.18;;;15.30;81.50;;;;;;7390539;19;20127;-77
2022/03/26 10:14:36;;;;;;;27.92;14.55;;;15.50;80.50;;;;;;7392581;19;20131;-76
2022/03/26 10:17:13;;;;;;;26.45;15.65;;;15.50;80.20;;;;;;7391323;19;20155;-77
2022/03/26 10:19:48;;;;;;;27.27;14.50;;;15.50;80.10;;;;;;7390098;19;20747;-76
2022/03/26 10:22:34;;;;;;;23.98;14.07;;;15.50;80.30;;;;;;7395521;19;20650;-77
2022/03/26 10:25:03;;;;;;;27.58;14.95;;;15.50;80.50;;;;;;7393596;19;20134;-76
2022/03/26 10:27:35;;;;;;;26.35;15.85;;;15.60;80.50;;;;;;7394648;19;20131;-76
2022/03/26 10:30:01;;;;;;;24.25;14.60;;;15.70;80.30;;;;;;7393311;19;20138;-76
2022/03/26 10:32:45;;;;;;;26.67;15.15;;;15.70;80.20;;;;;;7390089;19;20472;-78
2022/03/26 10:35:23;;;;;;;29.20;15.02;;;15.80;79.70;;;;;;7387204;19;20206;-76
2022/03/26 10:37:58;;;;;;;24.83;14.65;;;15.80;80.30;;;;;;7390900;19;20162;-76
2022/03/26 10:40:24;;;;;;;24.63;14.57;;;15.80;79.70;;;;;;7390186;19;20146;-78
2022/03/26 10:42:59;;;;;;;24.42;14.23;;;15.90;79.00;;;;;;7393892;19;20141;-77
2022/03/26 10:45:27;;;;;;;24.80;14.82;;;16.10;79.00;;;;;;7395434;19;20130;-77
2022/03/26 10:47:55;;;;;;;26.27;15.18;;;16.20;78.70;;;;;;7396826;19;20127;-77
2022/03/26 10:50:27;;;;;;;26.55;15.13;;;16.20;78.30;;;;;;7389387;19;20617;-78
2022/03/26 10:52:56;;;;;;;25.50;14.23;;;16.30;78.30;;;;;;7389506;19;20137;-79
2022/03/26 10:55:23;;;;;;;25.80;15.05;;;16.30;78.40;;;;;;7389847;19;20178;-78
2022/03/26 10:57:50;;;;;;;27.00;15.30;;;16.40;78.70;;;;;;7388417;19;20588;-79
2022/03/26 11:00:19;;;;;;;24.70;14.48;;;16.60;78.20;;;;;;7389775;19;20134;-78
2022/03/26 11:02:45;;;;;;;24.48;15.73;;;16.70;78.10;;;;;;7389904;19;20142;-77
2022/03/26 11:05:11;;;;;;;28.40;15.07;;;16.80;78.00;;;;;;7389119;19;20131;-77
2022/03/26 11:07:41;;;;;;;24.42;14.60;;;16.80;76.40;;;;;;7392728;19;20155;-79
2022/03/26 11:10:09;;;;;;;25.02;14.80;;;16.90;76.50;;;;;;7404096;19;20119;-78
2022/03/26 11:12:45;;;;;;;25.15;14.48;;;17.00;75.80;;;;;;7393505;19;20142;-77
2022/03/26 11:15:32;;;;;;;23.08;13.60;;;17.00;75.60;;;;;;7390449;19;20126;-76
2022/03/26 11:18:14;;;;;;;23.45;13.70;;;17.20;73.30;;;;;;7387385;19;20126;-75
2022/03/26 11:21:06;;;;;;;25.98;12.85;;;17.30;72.30;;;;;;7390196;19;20134;-77
2022/03/26 11:23:42;;;;;;;22.55;15.13;;;17.40;71.90;;;;;;7391020;19;20123;-78
2022/03/26 11:26:23;;;;;;;28.35;15.18;;;17.60;71.70;;;;;;7387362;19;20134;-77
2022/03/26 11:29:03;;;;;;;24.42;14.32;;;17.60;72.00;;;;;;7395502;19;20290;-75
2022/03/26 11:31:56;;;;;;;24.30;14.23;;;17.60;71.80;;;;;;7403190;19;20147;-77
2022/03/26 11:34:22;;;;;;;23.17;13.27;;;17.70;71.40;;;;;;7387267;19;20175;-76
2022/03/26 11:36:51;;;;;;;22.75;12.88;;;17.70;70.10;;;;;;7388854;19;20127;-76
2022/03/26 11:39:19;;;;;;;21.80;13.40;;;17.80;69.00;;;;;;7384972;19;20251;-76
2022/03/26 11:41:45;;;;;;;20.48;12.57;;;17.80;68.10;;;;;;7388468;19;20271;-77
2022/03/26 11:44:15;;;;;;;22.33;13.18;;;17.90;68.40;;;;;;7394010;19;20135;-78
2022/03/26 11:52:28;;;;;;;17.88;11.77;;;18.20;66.40;;;;;;7399773;19;20488;-77
2022/03/26 11:55:25;;;;;;;19.27;11.70;;;18.30;65.60;;;;;;7387983;19;20126;-77
2022/03/26 11:58:21;;;;;;;17.42;10.57;;;18.40;64.20;;;;;;7387031;19;20194;-78
2022/03/26 12:01:02;;;;;;;19.52;10.93;;;18.40;63.60;;;;;;7387287;19;20151;-78
2022/03/26 12:03:40;;;;;;;17.52;11.45;;;18.50;63.10;;;;;;7387538;19;20157;-77
2022/03/26 12:08:57;;;;;;;23.10;12.80;;;18.60;63.50;;;;;;7387673;19;20142;-79
2022/03/26 12:11:28;;;;;;;19.80;12.13;;;18.70;63.60;;;;;;7396379;19;20133;-78
2022/03/26 12:14:08;;;;;;;18.25;10.48;;;18.80;64.00;;;;;;7391710;19;20154;-78
2022/03/26 12:16:49;;;;;;;16.60;11.13;;;18.90;62.70;;;;;;7386753;19;20155;-78
2022/03/26 12:19:37;;;;;;;18.20;11.05;;;18.90;61.80;;;;;;7387325;19;20147;-77
2022/03/26 12:22:19;;;;;;;16.83;10.00;;;18.80;61.90;;;;;;7391865;19;20198;-77
2022/03/26 12:24:49;;;;;;;17.48;10.23;;;18.80;61.40;;;;;;7390090;19;20135;-77
2022/03/26 12:27:15;;;;;;;16.40;10.48;;;18.80;61.80;;;;;;7385613;19;20138;-78
2022/03/26 12:29:41;;;;;;;17.00;9.68;;;18.90;61.60;;;;;;7387247;19;20142;-79
2022/03/26 12:32:08;;;;;;;17.20;10.82;;;18.90;61.10;;;;;;7393807;19;20138;-77
2022/03/26 12:34:49;;;;;;;13.73;9.43;;;19.00;61.40;;;;;;7391687;19;20159;-77
2022/03/26 12:37:17;;;;;;;15.70;9.40;;;19.10;59.40;;;;;;7387302;19;20134;-78
2022/03/26 12:39:45;;;;;;;17.58;9.32;;;19.10;58.70;;;;;;7384602;19;20468;-78
2022/03/26 12:42:11;;;;;;;14.40;9.07;;;19.00;59.00;;;;;;7388105;19;20127;-76